Terminal Aerodrome Forecast
Issued by NWS Sterling, VA

Current Version | Previous Version | Graphics & Text | Print | Product List | Glossary Off
Versions: 1 2 3 4 5 6 7 8 9 10 11 12 13 14 15 16 17 18 19 20 21 22

000
FTUS41 KLWX 291250 AAA
TAFDCA
TAF AMD
KDCA 291250Z 2913/3012 22006KT P6SM SCT035 BKN110
      TEMPO 2913/2914 P6SM -SHRA BKN035
     FM292100 23009KT P6SM VCTS SCT060CB
     FM300300 19005KT P6SM BKN250
     FM300600 VRB03KT P6SM SCT040
     FM301100 13004KT P6SM BKN020=

USA.gov is the U.S. government's official web portal to all federal, state and local government web resources and services.